createdAt,value
2023-04-19T00:00:16.337Z,94949.00
2023-04-19T00:01:16.388Z,94947.00
2023-04-19T00:02:16.460Z,94949.00
2023-04-19T00:03:16.587Z,94951.00
2023-04-19T00:04:17.014Z,94951.00
2023-04-19T00:05:16.571Z,94951.00
2023-04-19T00:06:16.542Z,94947.00
2023-04-19T00:07:16.613Z,94947.00
2023-04-19T00:08:16.677Z,94951.00
2023-04-19T00:09:16.715Z,94949.00
2023-04-19T00:10:16.767Z,94947.00
2023-04-19T00:11:16.795Z,94947.00
2023-04-19T00:12:16.940Z,94947.00
2023-04-19T00:13:16.932Z,94947.00
2023-04-19T00:14:17.098Z,94945.00
2023-04-19T00:15:17.008Z,94945.00
2023-04-19T00:16:17.140Z,94944.00
2023-04-19T00:17:17.163Z,94949.00
2023-04-19T00:18:17.189Z,94947.00
2023-04-19T00:19:17.247Z,94947.00
2023-04-19T00:20:17.303Z,94947.00
2023-04-19T00:21:17.344Z,94947.00
2023-04-19T00:22:17.414Z,94949.00
2023-04-19T00:23:17.451Z,94949.00
2023-04-19T00:24:17.502Z,94951.00
2023-04-19T00:25:17.590Z,94947.00
2023-04-19T00:26:17.621Z,94947.00
2023-04-19T00:27:17.698Z,94947.00
2023-04-19T00:28:17.756Z,94947.00
2023-04-19T00:29:17.807Z,94945.00
2023-04-19T00:30:17.871Z,94945.00
2023-04-19T00:31:18.043Z,94944.00
2023-04-19T00:32:17.949Z,94944.00
2023-04-19T00:33:18.018Z,94944.00
2023-04-19T00:34:18.082Z,94945.00
2023-04-19T00:35:18.221Z,94944.00
2023-04-19T00:36:18.203Z,94942.00
2023-04-19T00:37:18.271Z,94942.00
2023-04-19T00:38:18.376Z,94940.00
2023-04-19T00:39:18.411Z,94940.00
2023-04-19T00:40:18.457Z,94940.00
2023-04-19T00:41:18.559Z,94940.00
2023-04-19T00:42:18.579Z,94938.00
2023-04-19T00:43:18.681Z,94940.00
2023-04-19T00:44:18.735Z,94940.00
2023-04-19T00:45:18.768Z,94940.00
2023-04-19T00:46:18.893Z,94940.00
2023-04-19T00:47:18.895Z,94940.00
2023-04-19T00:48:18.973Z,94938.00
2023-04-19T00:49:19.092Z,94940.00
2023-04-19T00:50:19.101Z,94938.00
2023-04-19T00:51:19.162Z,94938.00
2023-04-19T00:52:19.200Z,94938.00
2023-04-19T00:53:19.245Z,94936.00
2023-04-19T00:54:19.307Z,94940.00
2023-04-19T00:55:19.385Z,94936.00
2023-04-19T00:56:19.419Z,94936.00
2023-04-19T00:57:19.465Z,94934.00
2023-04-19T00:58:19.505Z,94934.00
2023-04-19T00:59:19.935Z,94934.00
2023-04-19T01:00:19.592Z,94934.00
2023-04-19T01:01:19.704Z,94932.00
2023-04-19T01:02:19.803Z,94932.00
2023-04-19T01:03:19.895Z,94934.00
2023-04-19T01:04:20.162Z,94934.00
2023-04-19T01:05:19.855Z,94934.00
2023-04-19T01:06:19.961Z,94932.00
2023-04-19T01:07:19.989Z,94932.00
2023-04-19T01:08:20.049Z,94932.00
2023-04-19T01:09:20.126Z,94934.00
2023-04-19T01:10:20.172Z,94934.00
2023-04-19T01:11:20.211Z,94932.00
2023-04-19T01:12:20.324Z,94932.00
2023-04-19T01:13:20.327Z,94932.00
2023-04-19T01:14:20.394Z,94930.00
2023-04-19T01:15:20.425Z,94930.00
2023-04-19T01:16:20.553Z,94932.00
2023-04-19T01:17:20.559Z,94930.00
2023-04-19T01:18:20.577Z,94928.00
2023-04-19T01:19:20.634Z,94926.00
2023-04-19T01:20:20.746Z,94926.00
2023-04-19T01:21:20.740Z,94922.00
2023-04-19T01:22:20.759Z,94922.00
2023-04-19T01:23:20.837Z,94920.00
2023-04-19T01:24:20.892Z,94918.00
2023-04-19T01:25:20.909Z,94920.00
2023-04-19T01:26:20.936Z,94916.00
2023-04-19T01:27:20.986Z,94918.00
2023-04-19T01:28:21.038Z,94914.00
2023-04-19T01:29:21.229Z,94916.00
2023-04-19T01:30:21.132Z,94916.00
2023-04-19T01:31:21.227Z,94906.00
2023-04-19T01:32:21.222Z,94914.00
2023-04-19T01:33:21.278Z,94906.00
2023-04-19T01:34:21.339Z,94906.00
2023-04-19T01:35:21.365Z,94906.00
2023-04-19T01:36:21.401Z,94902.00
2023-04-19T01:37:21.556Z,94902.00
2023-04-19T01:38:21.521Z,94902.00
2023-04-19T01:39:21.602Z,94902.00
2023-04-19T01:40:21.633Z,94900.00
2023-04-19T01:41:21.697Z,94898.00
2023-04-19T01:42:21.746Z,94898.00
2023-04-19T01:43:22.461Z,94898.00
2023-04-19T01:44:21.882Z,94898.00
2023-04-19T01:45:21.947Z,94896.00
2023-04-19T01:46:21.991Z,94898.00
2023-04-19T01:47:22.023Z,94894.00
2023-04-19T01:48:22.121Z,94896.00
2023-04-19T01:49:22.163Z,94894.00
2023-04-19T01:50:22.194Z,94892.00
2023-04-19T01:51:22.275Z,94891.00
2023-04-19T01:52:22.334Z,94891.00
2023-04-19T01:53:22.416Z,94889.00
2023-04-19T01:54:22.472Z,94889.00
2023-04-19T01:55:22.482Z,94889.00
2023-04-19T01:56:22.602Z,94887.00
2023-04-19T01:57:22.600Z,94887.00
2023-04-19T01:58:22.681Z,94885.00
2023-04-19T01:59:22.737Z,94885.00
2023-04-19T02:00:22.785Z,94885.00
2023-04-19T02:01:22.819Z,94887.00
2023-04-19T02:02:22.965Z,94889.00
2023-04-19T02:03:23.014Z,94883.00
2023-04-19T02:04:23.125Z,94883.00
2023-04-19T02:05:23.044Z,94883.00
2023-04-19T02:06:23.146Z,94883.00
2023-04-19T02:07:23.157Z,94883.00
2023-04-19T02:08:23.448Z,94885.00
2023-04-19T02:09:23.290Z,94885.00
2023-04-19T02:10:23.344Z,94883.00
2023-04-19T02:11:23.398Z,94887.00
2023-04-19T02:12:23.506Z,94885.00
2023-04-19T02:13:23.513Z,94885.00
2023-04-19T02:14:23.955Z,94885.00
2023-04-19T02:15:23.632Z,94885.00
2023-04-19T02:16:23.730Z,94887.00
2023-04-19T02:17:23.770Z,94885.00
2023-04-19T02:18:23.834Z,94885.00
2023-04-19T02:19:23.849Z,94885.00
2023-04-19T02:20:23.911Z,94883.00
2023-04-19T02:21:23.951Z,94883.00
2023-04-19T02:22:23.994Z,94881.00
2023-04-19T02:23:24.064Z,94883.00
2023-04-19T02:24:24.129Z,94881.00
2023-04-19T02:25:24.176Z,94879.00
2023-04-19T02:26:24.235Z,94877.00
2023-04-19T02:27:24.301Z,94873.00
2023-04-19T02:28:24.333Z,94873.00
2023-04-19T02:29:24.385Z,94873.00
2023-04-19T02:30:24.452Z,94873.00
2023-04-19T02:31:24.572Z,94869.00
2023-04-19T02:32:24.592Z,94871.00
2023-04-19T02:33:24.600Z,94873.00
2023-04-19T02:34:24.671Z,94871.00
2023-04-19T02:35:24.745Z,94871.00
2023-04-19T02:36:24.768Z,94873.00
2023-04-19T02:37:24.840Z,94873.00
2023-04-19T02:38:24.869Z,94873.00
2023-04-19T02:39:24.932Z,94871.00
2023-04-19T02:40:24.977Z,94871.00
2023-04-19T02:41:25.017Z,94869.00
2023-04-19T02:42:25.082Z,94867.00
2023-04-19T02:43:25.156Z,94867.00
2023-04-19T02:44:25.187Z,94867.00
2023-04-19T02:45:25.252Z,94865.00
2023-04-19T02:46:25.327Z,94865.00
2023-04-19T02:47:25.367Z,94867.00
2023-04-19T02:48:25.384Z,94863.00
2023-04-19T02:49:25.458Z,94863.00
2023-04-19T02:50:25.505Z,94865.00
2023-04-19T02:51:25.528Z,94865.00
2023-04-19T02:52:25.634Z,94861.00
2023-04-19T02:53:25.650Z,94865.00
2023-04-19T02:54:25.697Z,94861.00
2023-04-19T02:55:25.748Z,94861.00
2023-04-19T02:56:25.804Z,94865.00
2023-04-19T02:57:25.850Z,94865.00
2023-04-19T02:58:25.891Z,94863.00
2023-04-19T02:59:25.961Z,94861.00
2023-04-19T03:00:26.024Z,94859.00
2023-04-19T03:01:26.095Z,94861.00
2023-04-19T03:02:26.260Z,94861.00
2023-04-19T03:03:26.267Z,94861.00
2023-04-19T03:04:26.268Z,94859.00
2023-04-19T03:05:26.329Z,94861.00
2023-04-19T03:06:26.343Z,94859.00
2023-04-19T03:07:26.412Z,94857.00
2023-04-19T03:08:26.440Z,94857.00
2023-04-19T03:09:26.501Z,94859.00
2023-04-19T03:10:26.586Z,94855.00
2023-04-19T03:11:26.595Z,94855.00
2023-04-19T03:12:26.648Z,94857.00
2023-04-19T03:13:26.699Z,94855.00
2023-04-19T03:14:26.778Z,94853.00
2023-04-19T03:15:26.799Z,94853.00
2023-04-19T03:16:26.960Z,94855.00
2023-04-19T03:17:26.927Z,94855.00
2023-04-19T03:18:26.971Z,94855.00
2023-04-19T03:19:27.041Z,94853.00
2023-04-19T03:20:27.134Z,94853.00
2023-04-19T03:21:27.132Z,94855.00
2023-04-19T03:22:27.174Z,94852.00
2023-04-19T03:23:27.209Z,94853.00
2023-04-19T03:24:27.246Z,94852.00
2023-04-19T03:25:27.309Z,94850.00
2023-04-19T03:26:27.356Z,94850.00
2023-04-19T03:27:27.450Z,94848.00
2023-04-19T03:28:27.462Z,94846.00
2023-04-19T03:29:27.993Z,94848.00
2023-04-19T03:30:27.556Z,94844.00
2023-04-19T03:31:27.598Z,94842.00
2023-04-19T03:32:27.648Z,94844.00
2023-04-19T03:33:27.697Z,94842.00
2023-04-19T03:34:27.725Z,94838.00
2023-04-19T03:35:27.744Z,94836.00
2023-04-19T03:36:27.805Z,94836.00
2023-04-19T03:37:27.833Z,94834.00
2023-04-19T03:38:27.911Z,94834.00
2023-04-19T03:39:27.968Z,94834.00
2023-04-19T03:40:27.975Z,94830.00
2023-04-19T03:41:28.020Z,94830.00
2023-04-19T03:42:29.177Z,94830.00
2023-04-19T03:43:28.163Z,94828.00
2023-04-19T03:44:28.169Z,94826.00
2023-04-19T03:45:28.199Z,94828.00
2023-04-19T03:46:28.254Z,94826.00
2023-04-19T03:47:28.271Z,94828.00
2023-04-19T03:48:28.342Z,94826.00
2023-04-19T03:49:28.368Z,94828.00
2023-04-19T03:50:28.409Z,94828.00
2023-04-19T03:51:28.425Z,94828.00
2023-04-19T03:52:28.486Z,94826.00
2023-04-19T03:53:28.535Z,94826.00
2023-04-19T03:54:28.539Z,94826.00
2023-04-19T03:55:28.580Z,94826.00
2023-04-19T03:56:28.628Z,94824.00
2023-04-19T03:57:28.665Z,94824.00
2023-04-19T03:58:28.721Z,94824.00
2023-04-19T03:59:28.769Z,94826.00
2023-04-19T04:00:28.823Z,94824.00
2023-04-19T04:01:28.927Z,94828.00
2023-04-19T04:02:29.005Z,94824.00
2023-04-19T04:03:29.331Z,94828.00
2023-04-19T04:04:29.241Z,94830.00
2023-04-19T04:05:29.099Z,94828.00
2023-04-19T04:06:29.100Z,94830.00
2023-04-19T04:07:29.153Z,94832.00
2023-04-19T04:08:29.215Z,94830.00
2023-04-19T04:09:29.235Z,94832.00
2023-04-19T04:10:29.268Z,94832.00
2023-04-19T04:11:29.320Z,94834.00
2023-04-19T04:12:29.338Z,94834.00
2023-04-19T04:13:29.400Z,94834.00
2023-04-19T04:14:29.422Z,94834.00
2023-04-19T04:15:29.435Z,94836.00
2023-04-19T04:16:29.583Z,94834.00
2023-04-19T04:17:29.572Z,94836.00
2023-04-19T04:18:29.541Z,94836.00
2023-04-19T04:19:29.593Z,94838.00
2023-04-19T04:20:30.525Z,94836.00
2023-04-19T04:21:29.671Z,94838.00
2023-04-19T04:22:29.795Z,94836.00
2023-04-19T04:23:29.762Z,94838.00
2023-04-19T04:24:29.755Z,94836.00
2023-04-19T04:25:29.805Z,94838.00
2023-04-19T04:26:29.879Z,94836.00
2023-04-19T04:27:29.902Z,94836.00
2023-04-19T04:28:29.951Z,94836.00
2023-04-19T04:29:29.973Z,94836.00
2023-04-19T04:30:30.004Z,94842.00
2023-04-19T04:31:30.130Z,94840.00
2023-04-19T04:32:30.162Z,94840.00
2023-04-19T04:33:30.172Z,94840.00
2023-04-19T04:34:30.183Z,94840.00
2023-04-19T04:35:30.185Z,94840.00
2023-04-19T04:36:30.221Z,94838.00
2023-04-19T04:37:30.283Z,94838.00
2023-04-19T04:38:30.316Z,94838.00
2023-04-19T04:39:30.366Z,94840.00
2023-04-19T04:40:30.376Z,94838.00
2023-04-19T04:41:30.457Z,94838.00
2023-04-19T04:42:30.474Z,94838.00
2023-04-19T04:43:30.516Z,94838.00
2023-04-19T04:44:30.993Z,94838.00
2023-04-19T04:45:30.625Z,94838.00
2023-04-19T04:46:30.651Z,94836.00
2023-04-19T04:47:30.709Z,94836.00
2023-04-19T04:48:30.700Z,94836.00
2023-04-19T04:49:30.739Z,94836.00
2023-04-19T04:50:30.802Z,94834.00
2023-04-19T04:51:30.820Z,94834.00
2023-04-19T04:52:30.867Z,94832.00
2023-04-19T04:53:30.916Z,94832.00
2023-04-19T04:54:30.973Z,94832.00
2023-04-19T04:55:30.978Z,94830.00
2023-04-19T04:56:31.120Z,94830.00
2023-04-19T04:57:31.032Z,94832.00
2023-04-19T04:58:31.087Z,94830.00
2023-04-19T04:59:31.095Z,94830.00
2023-04-19T05:00:31.105Z,94832.00
2023-04-19T05:01:31.157Z,94830.00
2023-04-19T05:02:31.244Z,94830.00
2023-04-19T05:03:31.191Z,94836.00
2023-04-19T05:04:32.092Z,94830.00
2023-04-19T05:05:31.224Z,94834.00
2023-04-19T05:06:31.272Z,94828.00
2023-04-19T05:07:31.311Z,94834.00
2023-04-19T05:08:31.343Z,94828.00
2023-04-19T05:09:31.395Z,94824.00
2023-04-19T05:10:31.489Z,94830.00
2023-04-19T05:11:31.492Z,94832.00
2023-04-19T05:12:31.485Z,94830.00
2023-04-19T05:13:31.523Z,94832.00
2023-04-19T05:14:31.605Z,94830.00
2023-04-19T05:15:31.617Z,94828.00
2023-04-19T05:16:31.665Z,94828.00
2023-04-19T05:17:31.765Z,94826.00
2023-04-19T05:18:31.734Z,94828.00
2023-04-19T05:19:31.794Z,94824.00
2023-04-19T05:20:31.840Z,94828.00
2023-04-19T05:21:31.890Z,94824.00
2023-04-19T05:22:31.945Z,94826.00
2023-04-19T05:23:31.966Z,94824.00
2023-04-19T05:24:32.561Z,94824.00
2023-04-19T05:25:32.074Z,94822.00
2023-04-19T05:26:32.183Z,94824.00
2023-04-19T05:27:32.180Z,94818.00
2023-04-19T05:28:32.267Z,94824.00
2023-04-19T05:29:33.035Z,94824.00
2023-04-19T05:30:32.318Z,94824.00
2023-04-19T05:31:32.512Z,94824.00
2023-04-19T05:32:32.484Z,94822.00
2023-04-19T05:33:32.525Z,94824.00
2023-04-19T05:34:32.485Z,94822.00
2023-04-19T05:35:32.577Z,94820.00
2023-04-19T05:36:32.610Z,94820.00
2023-04-19T05:37:32.728Z,94818.00
2023-04-19T05:38:32.711Z,94814.00
2023-04-19T05:39:33.045Z,94814.00
2023-04-19T05:40:32.954Z,94816.00
2023-04-19T05:41:33.537Z,94814.00
2023-04-19T05:42:32.887Z,94814.00
2023-04-19T05:43:32.938Z,94818.00
2023-04-19T05:44:33.043Z,94814.00
2023-04-19T05:45:32.971Z,94814.00
2023-04-19T05:46:33.212Z,94816.00
2023-04-19T05:47:33.071Z,94812.00
2023-04-19T05:48:33.005Z,94814.00
2023-04-19T05:49:33.052Z,94814.00
2023-04-19T05:50:33.036Z,94812.00
2023-04-19T05:51:33.047Z,94812.00
2023-04-19T05:52:33.122Z,94812.00
2023-04-19T05:53:34.074Z,94810.00
2023-04-19T05:54:33.579Z,94812.00
2023-04-19T05:55:33.233Z,94810.00
2023-04-19T05:56:33.220Z,94814.00
2023-04-19T05:57:33.224Z,94812.00
2023-04-19T05:58:34.133Z,94814.00
2023-04-19T05:59:33.562Z,94814.00
2023-04-19T06:00:33.275Z,94814.00
2023-04-19T06:01:33.317Z,94814.00
2023-04-19T06:02:33.426Z,94814.00
2023-04-19T06:03:33.505Z,94814.00
2023-04-19T06:04:33.443Z,94816.00
2023-04-19T06:05:33.466Z,94814.00
2023-04-19T06:06:33.457Z,94814.00
2023-04-19T06:07:36.111Z,94814.00
2023-04-19T06:08:34.484Z,94814.00
2023-04-19T06:09:33.444Z,94808.00
2023-04-19T06:10:47.914Z,94814.00
2023-04-19T06:11:39.425Z,94808.00
2023-04-19T06:12:34.479Z,94810.00
2023-04-19T06:13:33.473Z,94808.00
2023-04-19T06:14:33.622Z,94814.00
2023-04-19T06:15:33.408Z,94808.00
2023-04-19T06:16:33.487Z,94812.00
2023-04-19T06:17:33.432Z,94808.00
2023-04-19T06:18:33.380Z,94814.00
2023-04-19T06:19:33.379Z,94814.00
2023-04-19T06:20:33.402Z,94812.00
2023-04-19T06:21:33.362Z,94812.00
2023-04-19T06:22:33.383Z,94812.00
2023-04-19T06:23:33.342Z,94812.00
2023-04-19T06:24:35.289Z,94814.00
2023-04-19T06:25:33.334Z,94816.00
2023-04-19T06:26:33.421Z,94816.00
2023-04-19T06:27:33.371Z,94816.00
2023-04-19T06:28:33.294Z,94812.00
2023-04-19T06:29:33.308Z,94814.00
2023-04-19T06:30:33.318Z,94814.00
2023-04-19T06:31:33.384Z,94816.00
2023-04-19T06:32:33.471Z,94816.00
2023-04-19T06:33:33.298Z,94816.00
2023-04-19T06:34:33.291Z,94816.00
2023-04-19T06:35:33.336Z,94814.00
2023-04-19T06:36:33.360Z,94818.00
2023-04-19T06:37:33.362Z,94816.00
2023-04-19T06:38:33.339Z,94818.00
2023-04-19T06:39:33.367Z,94816.00
2023-04-19T06:40:34.053Z,94818.00
2023-04-19T06:41:33.414Z,94816.00
2023-04-19T06:42:33.495Z,94814.00
2023-04-19T06:43:33.459Z,94812.00
2023-04-19T06:44:33.536Z,94810.00
2023-04-19T06:45:33.553Z,94814.00
2023-04-19T06:46:33.522Z,94812.00
2023-04-19T06:47:35.450Z,94812.00
2023-04-19T06:48:33.690Z,94812.00
2023-04-19T06:49:33.529Z,94810.00
2023-04-19T06:50:33.648Z,94812.00
2023-04-19T06:51:33.604Z,94812.00
2023-04-19T06:52:33.644Z,94812.00
2023-04-19T06:53:33.659Z,94814.00
2023-04-19T06:54:33.707Z,94814.00
2023-04-19T06:55:33.758Z,94812.00
2023-04-19T06:56:33.729Z,94812.00
2023-04-19T06:57:33.772Z,94814.00
2023-04-19T06:58:35.132Z,94814.00
2023-04-19T06:59:33.883Z,94812.00
2023-04-19T07:00:33.896Z,94814.00
2023-04-19T07:01:33.965Z,94814.00
2023-04-19T07:02:34.198Z,94810.00
2023-04-19T07:03:34.234Z,94812.00
2023-04-19T07:04:34.456Z,94812.00
2023-04-19T07:05:34.168Z,94812.00
2023-04-19T07:06:34.169Z,94812.00
2023-04-19T07:07:34.241Z,94810.00
2023-04-19T07:08:48.576Z,94812.00
2023-04-19T07:09:35.258Z,94812.00
2023-04-19T07:10:34.256Z,94812.00
2023-04-19T07:11:34.361Z,94808.00
2023-04-19T07:12:34.245Z,94812.00
2023-04-19T07:13:34.270Z,94812.00
2023-04-19T07:14:34.377Z,94810.00
2023-04-19T07:15:34.293Z,94810.00
2023-04-19T07:16:34.312Z,94812.00
2023-04-19T07:17:34.244Z,94812.00
2023-04-19T07:18:34.260Z,94808.00
2023-04-19T07:19:34.572Z,94806.00
2023-04-19T07:20:34.328Z,94808.00
2023-04-19T07:21:34.466Z,94805.00
2023-04-19T07:22:34.677Z,94806.00
2023-04-19T07:23:34.479Z,94803.00
2023-04-19T07:24:34.512Z,94808.00
2023-04-19T07:25:34.534Z,94805.00
2023-04-19T07:26:34.568Z,94806.00
2023-04-19T07:27:34.631Z,94801.00
2023-04-19T07:28:34.686Z,94801.00
2023-04-19T07:29:35.048Z,94801.00
2023-04-19T07:30:34.807Z,94799.00
2023-04-19T07:31:34.889Z,94803.00
2023-04-19T07:32:35.050Z,94803.00
2023-04-19T07:33:35.040Z,94799.00
2023-04-19T07:34:35.103Z,94799.00
2023-04-19T07:35:36.053Z,94797.00
2023-04-19T07:36:35.133Z,94799.00
2023-04-19T07:37:35.216Z,94795.00
2023-04-19T07:38:35.273Z,94801.00
2023-04-19T07:39:35.623Z,94801.00
2023-04-19T07:40:36.093Z,94799.00
2023-04-19T07:41:36.293Z,94797.00
2023-04-19T07:42:35.480Z,94791.00
2023-04-19T07:43:35.542Z,94791.00
2023-04-19T07:44:35.602Z,94789.00
2023-04-19T07:45:36.078Z,94793.00
2023-04-19T07:46:35.783Z,94797.00
2023-04-19T07:47:35.805Z,94793.00
2023-04-19T07:48:35.843Z,94795.00
2023-04-19T07:49:35.903Z,94791.00
2023-04-19T07:50:36.061Z,94789.00
2023-04-19T07:51:35.968Z,94789.00
2023-04-19T07:52:36.011Z,94789.00
2023-04-19T07:53:36.065Z,94789.00
2023-04-19T07:54:36.148Z,94785.00
2023-04-19T07:55:36.184Z,94783.00
2023-04-19T07:56:36.198Z,94785.00
2023-04-19T07:57:36.248Z,94783.00
2023-04-19T07:58:36.290Z,94785.00
2023-04-19T07:59:36.383Z,94785.00
2023-04-19T08:00:36.375Z,94783.00
2023-04-19T08:01:36.479Z,94785.00
2023-04-19T08:02:36.609Z,94783.00
2023-04-19T08:03:36.673Z,94783.00
2023-04-19T08:04:37.016Z,94783.00
2023-04-19T08:05:36.565Z,94785.00
2023-04-19T08:06:36.558Z,94783.00
2023-04-19T08:07:36.581Z,94781.00
2023-04-19T08:08:36.561Z,94781.00
2023-04-19T08:09:36.608Z,94779.00
2023-04-19T08:10:36.677Z,94779.00
2023-04-19T08:11:36.737Z,94777.00
2023-04-19T08:12:42.765Z,94777.00
2023-04-19T08:13:38.724Z,94777.00
2023-04-19T08:14:47.575Z,94777.00
2023-04-19T08:16:20.520Z,94773.00
2023-04-19T08:17:41.866Z,94773.00
2023-04-19T08:18:37.763Z,94773.00
2023-04-19T08:19:37.062Z,94775.00
2023-04-19T08:20:37.062Z,94773.00
2023-04-19T08:21:41.050Z,94773.00
2023-04-19T08:22:36.596Z,94771.00
2023-04-19T08:23:47.155Z,94767.00
2023-04-19T08:24:37.574Z,94769.00
2023-04-19T08:25:36.621Z,94767.00
2023-04-19T08:26:36.599Z,94761.00
2023-04-19T08:27:36.569Z,94765.00
2023-04-19T08:28:36.604Z,94765.00
2023-04-19T08:29:36.562Z,94763.00
2023-04-19T08:30:36.586Z,94761.00
2023-04-19T08:31:36.553Z,94761.00
2023-04-19T08:32:36.526Z,94761.00
2023-04-19T08:33:36.544Z,94757.00
2023-04-19T08:34:36.534Z,94757.00
2023-04-19T08:35:36.496Z,94759.00
2023-04-19T08:36:41.357Z,94759.00
2023-04-19T08:37:37.627Z,94761.00
2023-04-19T08:38:36.520Z,94757.00
2023-04-19T08:39:36.850Z,94755.00
2023-04-19T08:40:36.499Z,94759.00
2023-04-19T08:41:36.477Z,94755.00
2023-04-19T08:42:37.270Z,94750.00
2023-04-19T08:43:36.439Z,94753.00
2023-04-19T08:44:39.131Z,94751.00
2023-04-19T08:45:38.125Z,94755.00
2023-04-19T08:46:36.726Z,94753.00
2023-04-19T08:47:39.726Z,94753.00
2023-04-19T08:48:37.826Z,94751.00
2023-04-19T08:49:37.530Z,94753.00
2023-04-19T08:50:45.531Z,94750.00
2023-04-19T08:51:37.686Z,94751.00
2023-04-19T08:52:51.765Z,94750.00
2023-04-19T08:53:37.680Z,94746.00
2023-04-19T08:54:37.127Z,94748.00
2023-04-19T08:55:36.649Z,94746.00
2023-04-19T08:56:36.646Z,94744.00
2023-04-19T08:57:36.691Z,94742.00
2023-04-19T08:58:56.907Z,94742.00
2023-04-19T08:59:37.640Z,94738.00
2023-04-19T09:00:37.112Z,94738.00
2023-04-19T09:01:36.812Z,94734.00
2023-04-19T09:02:36.867Z,94736.00
2023-04-19T09:03:51.189Z,94734.00
2023-04-19T09:04:38.001Z,94734.00
2023-04-19T09:05:37.249Z,94730.00
2023-04-19T09:06:36.811Z,94728.00
2023-04-19T09:07:37.161Z,94730.00
2023-04-19T09:08:36.562Z,94728.00
2023-04-19T09:09:43.119Z,94726.00
2023-04-19T09:10:38.128Z,94726.00
2023-04-19T09:11:36.542Z,94726.00
2023-04-19T09:12:36.596Z,94724.00
2023-04-19T09:13:36.649Z,94722.00
2023-04-19T09:14:36.520Z,94722.00
2023-04-19T09:15:36.652Z,94722.00
2023-04-19T09:16:36.502Z,94720.00
2023-04-19T09:17:36.507Z,94720.00
2023-04-19T09:18:42.501Z,94720.00
2023-04-19T09:19:37.585Z,94714.00
2023-04-19T09:20:36.549Z,94712.00
2023-04-19T09:21:36.456Z,94712.00
2023-04-19T09:22:36.461Z,94711.00
2023-04-19T09:23:36.441Z,94712.00
2023-04-19T09:25:04.490Z,94711.00
2023-04-19T09:25:55.345Z,94707.00
2023-04-19T09:26:37.448Z,94707.00
2023-04-19T09:27:36.540Z,94703.00
2023-04-19T09:28:36.445Z,94701.00
2023-04-19T09:29:36.423Z,94703.00
2023-04-19T09:30:46.819Z,94701.00
2023-04-19T09:31:50.915Z,94699.00
2023-04-19T09:32:37.430Z,94695.00
2023-04-19T09:33:36.393Z,94697.00
2023-04-19T09:34:36.394Z,94693.00
2023-04-19T09:35:36.765Z,94687.00
2023-04-19T09:36:36.410Z,94685.00
2023-04-19T09:37:57.379Z,94685.00
2023-04-19T09:38:37.430Z,94683.00
2023-04-19T09:39:36.351Z,94679.00
2023-04-19T09:40:36.343Z,94681.00
2023-04-19T09:41:38.161Z,94681.00
2023-04-19T09:44:00.873Z,94673.00
2023-04-19T09:45:36.575Z,94673.00
2023-04-19T09:46:36.712Z,94671.00
2023-04-19T09:47:36.570Z,94671.00
2023-04-19T09:48:36.529Z,94673.00
2023-04-19T09:50:50.480Z,94667.00
2023-04-19T09:51:37.605Z,94665.00
2023-04-19T09:52:36.466Z,94665.00
2023-04-19T09:53:36.474Z,94665.00
2023-04-19T09:54:36.464Z,94662.00
2023-04-19T09:55:48.905Z,94662.00
2023-04-19T09:56:37.609Z,94658.00
2023-04-19T09:57:36.458Z,94658.00
2023-04-19T09:59:36.433Z,94650.00
2023-04-19T10:00:45.648Z,94648.00
2023-04-19T10:01:37.625Z,94646.00
2023-04-19T10:02:36.528Z,94644.00
2023-04-19T10:03:36.677Z,94646.00
2023-04-19T10:04:54.434Z,94644.00
2023-04-19T10:05:37.666Z,94644.00
2023-04-19T10:06:58.488Z,94642.00
2023-04-19T10:07:37.398Z,94642.00
2023-04-19T10:08:36.401Z,94640.00
2023-04-19T10:09:42.758Z,94642.00
2023-04-19T10:10:41.692Z,94640.00
2023-04-19T10:11:37.370Z,94642.00
2023-04-19T10:12:58.556Z,94638.00
2023-04-19T10:13:37.321Z,94638.00
2023-04-19T10:14:36.328Z,94636.00
2023-04-19T10:16:36.370Z,94636.00
2023-04-19T10:17:36.394Z,94634.00
2023-04-19T10:18:36.336Z,94634.00
2023-04-19T10:19:36.400Z,94632.00
2023-04-19T10:20:36.359Z,94630.00
2023-04-19T10:21:36.272Z,94632.00
2023-04-19T10:22:36.387Z,94628.00
2023-04-19T10:23:36.241Z,94630.00
2023-04-19T10:24:36.236Z,94626.00
2023-04-19T10:25:36.258Z,94624.00
2023-04-19T10:26:36.314Z,94622.00
2023-04-19T10:27:36.237Z,94620.00
2023-04-19T10:28:36.207Z,94618.00
2023-04-19T10:29:36.353Z,94616.00
2023-04-19T10:30:36.188Z,94616.00
2023-04-19T10:31:36.672Z,94616.00
2023-04-19T10:32:36.203Z,94616.00
2023-04-19T10:33:36.541Z,94618.00
2023-04-19T10:34:36.163Z,94614.00
2023-04-19T10:35:36.224Z,94612.00
2023-04-19T10:36:36.685Z,94612.00
2023-04-19T10:37:36.185Z,94609.00
2023-04-19T10:38:36.151Z,94607.00
2023-04-19T10:39:36.137Z,94609.00
2023-04-19T10:40:36.652Z,94607.00
2023-04-19T10:41:36.125Z,94605.00
2023-04-19T10:42:36.114Z,94607.00
2023-04-19T10:43:36.125Z,94605.00
2023-04-19T10:44:36.120Z,94603.00
2023-04-19T10:45:36.236Z,94599.00
2023-04-19T10:46:36.450Z,94599.00
2023-04-19T10:47:36.111Z,94595.00
2023-04-19T10:48:36.083Z,94595.00
2023-04-19T10:49:36.081Z,94593.00
2023-04-19T10:50:36.076Z,94589.00
2023-04-19T10:51:36.114Z,94587.00
2023-04-19T10:52:36.110Z,94587.00
2023-04-19T10:53:36.027Z,94583.00
2023-04-19T10:54:36.039Z,94585.00
2023-04-19T10:55:36.009Z,94581.00
2023-04-19T10:56:36.024Z,94581.00
2023-04-19T10:57:36.020Z,94579.00
2023-04-19T10:58:35.985Z,94577.00
2023-04-19T10:59:35.989Z,94575.00
2023-04-19T11:00:36.004Z,94575.00
2023-04-19T11:01:36.184Z,94573.00
2023-04-19T11:02:36.138Z,94571.00
2023-04-19T11:03:36.256Z,94573.00
2023-04-19T11:04:36.281Z,94567.00
2023-04-19T11:05:36.204Z,94567.00
2023-04-19T11:06:36.272Z,94564.00
2023-04-19T11:07:36.312Z,94564.00
2023-04-19T11:08:36.357Z,94562.00
2023-04-19T11:09:36.450Z,94560.00
2023-04-19T11:10:36.446Z,94558.00
2023-04-19T11:11:36.527Z,94556.00
2023-04-19T11:12:36.538Z,94550.00
2023-04-19T11:13:36.550Z,94550.00
2023-04-19T11:14:36.692Z,94548.00
2023-04-19T11:15:36.621Z,94546.00
2023-04-19T11:16:45.594Z,94546.00
2023-04-19T11:17:37.662Z,94544.00
2023-04-19T11:18:36.752Z,94542.00
2023-04-19T11:19:36.624Z,94538.00
2023-04-19T11:20:36.592Z,94536.00
2023-04-19T11:21:36.633Z,94538.00
2023-04-19T11:22:36.604Z,94534.00
2023-04-19T11:23:36.584Z,94536.00
2023-04-19T11:24:36.555Z,94536.00
2023-04-19T11:25:36.573Z,94532.00
2023-04-19T11:26:36.547Z,94530.00
2023-04-19T11:27:36.556Z,94526.00
2023-04-19T11:28:36.534Z,94522.00
2023-04-19T11:29:36.530Z,94522.00
2023-04-19T11:30:36.561Z,94520.00
2023-04-19T11:31:36.672Z,94520.00
2023-04-19T11:32:36.703Z,94517.00
2023-04-19T11:33:36.734Z,94517.00
2023-04-19T11:34:36.766Z,94515.00
2023-04-19T11:35:36.824Z,94509.00
2023-04-19T11:36:37.165Z,94507.00
2023-04-19T11:37:36.967Z,94507.00
2023-04-19T11:38:37.017Z,94507.00
2023-04-19T11:39:37.090Z,94503.00
2023-04-19T11:40:37.112Z,94501.00
2023-04-19T11:41:37.172Z,94501.00
2023-04-19T11:42:37.273Z,94499.00
2023-04-19T11:43:37.335Z,94499.00
2023-04-19T11:44:37.369Z,94495.00
2023-04-19T11:45:39.596Z,94497.00
2023-04-19T11:46:37.505Z,94493.00
2023-04-19T11:47:37.445Z,94493.00
2023-04-19T11:48:37.408Z,94489.00
2023-04-19T11:49:37.408Z,94487.00
2023-04-19T11:50:37.552Z,94487.00